sensor_id;sensor_type;location;lat;lon;timestamp;temperature;humidity
20366;DHT22;10341;49.894;8.822;2022-12-29T00:00:28;11.60;99.90
20366;DHT22;10341;49.894;8.822;2022-12-29T00:05:53;11.80;99.90
20366;DHT22;10341;49.894;8.822;2022-12-29T00:11:14;11.80;99.90
20366;DHT22;10341;49.894;8.822;2022-12-29T00:16:34;11.80;99.90
20366;DHT22;10341;49.894;8.822;2022-12-29T00:21:53;11.90;99.90
20366;DHT22;10341;49.894;8.822;2022-12-29T00:27:31;11.90;99.90
20366;DHT22;10341;49.894;8.822;2022-12-29T00:33:17;11.90;99.90
20366;DHT22;10341;49.894;8.822;2022-12-29T00:38:57;12.00;99.90
20366;DHT22;10341;49.894;8.822;2022-12-29T00:44:37;12.00;99.90
20366;DHT22;10341;49.894;8.822;2022-12-29T00:49:56;11.50;99.90
20366;DHT22;10341;49.894;8.822;2022-12-29T00:55:15;11.20;99.90
20366;DHT22;10341;49.894;8.822;2022-12-29T01:00:35;10.90;99.90
20366;DHT22;10341;49.894;8.822;2022-12-29T01:05:54;10.70;99.90
20366;DHT22;10341;49.894;8.822;2022-12-29T01:11:13;10.60;99.90
20366;DHT22;10341;49.894;8.822;2022-12-29T01:16:32;10.60;99.90
20366;DHT22;10341;49.894;8.822;2022-12-29T01:21:52;10.50;99.90
20366;DHT22;10341;49.894;8.822;2022-12-29T01:27:12;10.60;99.90
20366;DHT22;10341;49.894;8.822;2022-12-29T01:32:32;10.50;99.90
20366;DHT22;10341;49.894;8.822;2022-12-29T01:37:51;10.50;99.90
20366;DHT22;10341;49.894;8.822;2022-12-29T01:43:11;10.50;99.90
20366;DHT22;10341;49.894;8.822;2022-12-29T01:48:31;10.60;99.90
20366;DHT22;10341;49.894;8.822;2022-12-29T01:53:50;10.70;99.90
20366;DHT22;10341;49.894;8.822;2022-12-29T01:59:12;10.80;99.90
20366;DHT22;10341;49.894;8.822;2022-12-29T02:04:34;10.90;99.90
20366;DHT22;10341;49.894;8.822;2022-12-29T02:09:53;11.10;99.90
20366;DHT22;10341;49.894;8.822;2022-12-29T02:15:14;11.20;99.90
20366;DHT22;10341;49.894;8.822;2022-12-29T02:31:38;11.30;99.90
20366;DHT22;10341;49.894;8.822;2022-12-29T02:37:09;11.30;99.90
20366;DHT22;10341;49.894;8.822;2022-12-29T02:53:49;11.40;99.90
20366;DHT22;10341;49.894;8.822;2022-12-29T02:59:28;11.40;99.90
20366;DHT22;10341;49.894;8.822;2022-12-29T03:10:40;11.40;99.90
20366;DHT22;10341;49.894;8.822;2022-12-29T03:16:10;11.40;99.90
20366;DHT22;10341;49.894;8.822;2022-12-29T03:21:37;11.50;99.90
20366;DHT22;10341;49.894;8.822;2022-12-29T03:27:19;11.50;99.90
20366;DHT22;10341;49.894;8.822;2022-12-29T03:32:44;11.50;99.90
20366;DHT22;10341;49.894;8.822;2022-12-29T03:43:35;11.70;99.90
20366;DHT22;10341;49.894;8.822;2022-12-29T03:48:54;11.80;99.90
20366;DHT22;10341;49.894;8.822;2022-12-29T03:54:13;11.70;99.90
20366;DHT22;10341;49.894;8.822;2022-12-29T03:59:33;11.60;99.90
20366;DHT22;10341;49.894;8.822;2022-12-29T04:04:53;11.50;99.90
20366;DHT22;10341;49.894;8.822;2022-12-29T04:10:12;11.50;99.90
20366;DHT22;10341;49.894;8.822;2022-12-29T04:15:32;11.60;99.90
20366;DHT22;10341;49.894;8.822;2022-12-29T04:20:51;11.70;99.90
20366;DHT22;10341;49.894;8.822;2022-12-29T04:26:21;11.60;99.90
20366;DHT22;10341;49.894;8.822;2022-12-29T04:31:51;11.70;99.90
20366;DHT22;10341;49.894;8.822;2022-12-29T04:37:11;11.70;99.90
20366;DHT22;10341;49.894;8.822;2022-12-29T04:42:30;11.70;99.90
20366;DHT22;10341;49.894;8.822;2022-12-29T04:47:50;11.60;99.90
20366;DHT22;10341;49.894;8.822;2022-12-29T04:53:18;11.70;99.90
20366;DHT22;10341;49.894;8.822;2022-12-29T04:58:39;11.80;99.90
20366;DHT22;10341;49.894;8.822;2022-12-29T05:03:58;11.80;99.90
20366;DHT22;10341;49.894;8.822;2022-12-29T05:09:18;12.00;99.90
20366;DHT22;10341;49.894;8.822;2022-12-29T05:14:37;12.00;99.90
20366;DHT22;10341;49.894;8.822;2022-12-29T05:19:57;12.10;99.90
20366;DHT22;10341;49.894;8.822;2022-12-29T05:25:17;12.00;99.90
20366;DHT22;10341;49.894;8.822;2022-12-29T05:30:55;12.00;99.90
20366;DHT22;10341;49.894;8.822;2022-12-29T05:36:14;12.10;99.90
20366;DHT22;10341;49.894;8.822;2022-12-29T05:41:39;12.10;99.90
20366;DHT22;10341;49.894;8.822;2022-12-29T05:47:30;12.20;99.90
20366;DHT22;10341;49.894;8.822;2022-12-29T05:53:13;12.20;99.90
20366;DHT22;10341;49.894;8.822;2022-12-29T05:58:34;12.30;99.90
20366;DHT22;10341;49.894;8.822;2022-12-29T06:03:53;12.30;99.90
20366;DHT22;10341;49.894;8.822;2022-12-29T06:09:14;12.20;99.90
20366;DHT22;10341;49.894;8.822;2022-12-29T06:14:33;12.30;99.90
20366;DHT22;10341;49.894;8.822;2022-12-29T06:19:55;12.20;99.90
20366;DHT22;10341;49.894;8.822;2022-12-29T06:25:15;12.30;99.90
20366;DHT22;10341;49.894;8.822;2022-12-29T06:30:36;12.40;99.90
20366;DHT22;10341;49.894;8.822;2022-12-29T06:35:55;12.40;99.90
20366;DHT22;10341;49.894;8.822;2022-12-29T06:41:14;12.30;99.90
20366;DHT22;10341;49.894;8.822;2022-12-29T06:46:52;12.30;99.90
20366;DHT22;10341;49.894;8.822;2022-12-29T06:52:12;12.30;99.90
20366;DHT22;10341;49.894;8.822;2022-12-29T06:57:31;12.20;99.90
20366;DHT22;10341;49.894;8.822;2022-12-29T07:02:50;12.20;99.90
20366;DHT22;10341;49.894;8.822;2022-12-29T07:08:09;12.10;99.90
20366;DHT22;10341;49.894;8.822;2022-12-29T07:13:29;12.10;99.90
20366;DHT22;10341;49.894;8.822;2022-12-29T07:18:48;12.20;99.90
20366;DHT22;10341;49.894;8.822;2022-12-29T07:24:07;12.30;99.90
20366;DHT22;10341;49.894;8.822;2022-12-29T07:29:26;12.50;99.90
20366;DHT22;10341;49.894;8.822;2022-12-29T07:34:45;12.30;99.90
20366;DHT22;10341;49.894;8.822;2022-12-29T07:40:06;12.20;99.90
20366;DHT22;10341;49.894;8.822;2022-12-29T07:45:26;12.20;99.90
20366;DHT22;10341;49.894;8.822;2022-12-29T07:51:04;12.20;99.90
20366;DHT22;10341;49.894;8.822;2022-12-29T07:56:23;12.20;99.90
20366;DHT22;10341;49.894;8.822;2022-12-29T08:01:42;12.20;99.90
20366;DHT22;10341;49.894;8.822;2022-12-29T08:07:01;12.00;99.90
20366;DHT22;10341;49.894;8.822;2022-12-29T08:12:21;12.00;99.90
20366;DHT22;10341;49.894;8.822;2022-12-29T08:17:40;12.10;99.90
20366;DHT22;10341;49.894;8.822;2022-12-29T08:22:59;12.20;99.90
20366;DHT22;10341;49.894;8.822;2022-12-29T08:28:19;12.20;99.90
20366;DHT22;10341;49.894;8.822;2022-12-29T08:33:38;12.30;99.90
20366;DHT22;10341;49.894;8.822;2022-12-29T08:38:57;12.50;99.90
20366;DHT22;10341;49.894;8.822;2022-12-29T08:44:16;13.60;99.90
20366;DHT22;10341;49.894;8.822;2022-12-29T08:49:35;14.10;99.90
20366;DHT22;10341;49.894;8.822;2022-12-29T08:54:55;14.20;99.90
20366;DHT22;10341;49.894;8.822;2022-12-29T09:00:14;14.00;99.90
20366;DHT22;10341;49.894;8.822;2022-12-29T09:05:34;14.70;99.90
20366;DHT22;10341;49.894;8.822;2022-12-29T09:10:53;14.40;99.90
20366;DHT22;10341;49.894;8.822;2022-12-29T09:16:12;13.80;99.90
20366;DHT22;10341;49.894;8.822;2022-12-29T09:21:32;13.60;99.90
20366;DHT22;10341;49.894;8.822;2022-12-29T09:26:51;13.40;99.90
20366;DHT22;10341;49.894;8.822;2022-12-29T09:32:10;13.30;99.90
20366;DHT22;10341;49.894;8.822;2022-12-29T09:37:30;13.30;99.90
20366;DHT22;10341;49.894;8.822;2022-12-29T09:43:23;13.30;99.90
20366;DHT22;10341;49.894;8.822;2022-12-29T09:48:35;13.50;99.90
20366;DHT22;10341;49.894;8.822;2022-12-29T09:53:57;14.00;99.90
20366;DHT22;10341;49.894;8.822;2022-12-29T09:59:19;13.60;99.90
20366;DHT22;10341;49.894;8.822;2022-12-29T10:04:40;13.40;99.90
20366;DHT22;10341;49.894;8.822;2022-12-29T10:15:28;13.50;99.90
20366;DHT22;10341;49.894;8.822;2022-12-29T10:20:55;13.80;99.90
20366;DHT22;10341;49.894;8.822;2022-12-29T10:26:30;14.30;99.90
20366;DHT22;10341;49.894;8.822;2022-12-29T10:31:53;16.30;99.90
20366;DHT22;10341;49.894;8.822;2022-12-29T10:42:34;17.10;99.90
20366;DHT22;10341;49.894;8.822;2022-12-29T10:48:08;15.50;99.90
20366;DHT22;10341;49.894;8.822;2022-12-29T10:53:30;14.50;99.90
20366;DHT22;10341;49.894;8.822;2022-12-29T10:58:54;13.10;99.90
20366;DHT22;10341;49.894;8.822;2022-12-29T11:09:37;12.10;99.90
20366;DHT22;10341;49.894;8.822;2022-12-29T11:31:26;11.40;99.90
20366;DHT22;10341;49.894;8.822;2022-12-29T11:36:46;11.40;99.90
20366;DHT22;10341;49.894;8.822;2022-12-29T11:42:06;11.40;99.90
20366;DHT22;10341;49.894;8.822;2022-12-29T11:47:28;12.50;99.90
20366;DHT22;10341;49.894;8.822;2022-12-29T11:52:48;14.60;99.90
20366;DHT22;10341;49.894;8.822;2022-12-29T11:58:11;16.00;99.90
20366;DHT22;10341;49.894;8.822;2022-12-29T12:03:35;15.70;99.90
20366;DHT22;10341;49.894;8.822;2022-12-29T12:09:14;14.40;99.90
20366;DHT22;10341;49.894;8.822;2022-12-29T12:14:41;13.60;99.90
20366;DHT22;10341;49.894;8.822;2022-12-29T12:20:21;13.10;99.90
20366;DHT22;10341;49.894;8.822;2022-12-29T12:25:43;12.80;99.90
20366;DHT22;10341;49.894;8.822;2022-12-29T12:31:04;12.80;99.90
20366;DHT22;10341;49.894;8.822;2022-12-29T12:36:29;12.70;99.90
20366;DHT22;10341;49.894;8.822;2022-12-29T12:41:57;12.70;99.90
20366;DHT22;10341;49.894;8.822;2022-12-29T12:58:20;12.50;99.90
20366;DHT22;10341;49.894;8.822;2022-12-29T13:14:41;12.40;99.90
20366;DHT22;10341;49.894;8.822;2022-12-29T13:31:14;12.20;99.90
20366;DHT22;10341;49.894;8.822;2022-12-29T13:36:39;12.10;99.90
20366;DHT22;10341;49.894;8.822;2022-12-29T13:42:02;12.10;99.90
20366;DHT22;10341;49.894;8.822;2022-12-29T13:53:19;12.10;99.90
20366;DHT22;10341;49.894;8.822;2022-12-29T13:58:44;12.30;99.90
20366;DHT22;10341;49.894;8.822;2022-12-29T14:04:10;12.30;99.90
20366;DHT22;10341;49.894;8.822;2022-12-29T14:14:52;12.30;99.90
20366;DHT22;10341;49.894;8.822;2022-12-29T14:20:21;12.30;99.90
20366;DHT22;10341;49.894;8.822;2022-12-29T14:25:58;12.30;99.90
20366;DHT22;10341;49.894;8.822;2022-12-29T14:52:57;11.90;99.90
20366;DHT22;10341;49.894;8.822;2022-12-29T14:58:27;11.90;99.90
20366;DHT22;10341;49.894;8.822;2022-12-29T15:03:48;11.80;99.90
20366;DHT22;10341;49.894;8.822;2022-12-29T15:09:12;11.80;99.90
20366;DHT22;10341;49.894;8.822;2022-12-29T15:14:38;11.70;99.90
20366;DHT22;10341;49.894;8.822;2022-12-29T15:20:00;11.50;99.90
20366;DHT22;10341;49.894;8.822;2022-12-29T15:25:19;11.30;99.90
20366;DHT22;10341;49.894;8.822;2022-12-29T15:30:49;11.10;99.90
20366;DHT22;10341;49.894;8.822;2022-12-29T15:36:21;11.00;99.90
20366;DHT22;10341;49.894;8.822;2022-12-29T15:41:43;10.90;99.90
20366;DHT22;10341;49.894;8.822;2022-12-29T15:47:23;10.80;99.90
20366;DHT22;10341;49.894;8.822;2022-12-29T15:52:43;10.70;99.90
20366;DHT22;10341;49.894;8.822;2022-12-29T15:58:03;10.60;99.90
20366;DHT22;10341;49.894;8.822;2022-12-29T16:03:24;10.30;99.90
20366;DHT22;10341;49.894;8.822;2022-12-29T16:08:46;10.30;99.90
20366;DHT22;10341;49.894;8.822;2022-12-29T16:14:18;10.30;99.90
20366;DHT22;10341;49.894;8.822;2022-12-29T16:19:38;10.50;99.90
20366;DHT22;10341;49.894;8.822;2022-12-29T16:24:59;10.40;99.90
20366;DHT22;10341;49.894;8.822;2022-12-29T16:30:21;10.30;99.90
20366;DHT22;10341;49.894;8.822;2022-12-29T16:35:45;10.20;99.90
20366;DHT22;10341;49.894;8.822;2022-12-29T16:41:05;10.20;99.90
20366;DHT22;10341;49.894;8.822;2022-12-29T16:46:25;10.30;99.90
20366;DHT22;10341;49.894;8.822;2022-12-29T16:51:46;10.30;99.90
20366;DHT22;10341;49.894;8.822;2022-12-29T16:57:05;10.20;99.90
20366;DHT22;10341;49.894;8.822;2022-12-29T17:02:26;10.10;99.90
20366;DHT22;10341;49.894;8.822;2022-12-29T17:07:46;10.20;99.90
20366;DHT22;10341;49.894;8.822;2022-12-29T17:13:06;10.20;99.90
20366;DHT22;10341;49.894;8.822;2022-12-29T17:18:26;10.20;99.90
20366;DHT22;10341;49.894;8.822;2022-12-29T17:23:45;10.20;99.90
20366;DHT22;10341;49.894;8.822;2022-12-29T17:29:04;10.20;99.90
20366;DHT22;10341;49.894;8.822;2022-12-29T17:34:24;10.20;99.90
20366;DHT22;10341;49.894;8.822;2022-12-29T17:39:43;10.20;99.90
20366;DHT22;10341;49.894;8.822;2022-12-29T17:45:02;10.30;99.90
20366;DHT22;10341;49.894;8.822;2022-12-29T17:50:23;10.20;99.90
20366;DHT22;10341;49.894;8.822;2022-12-29T17:55:42;10.20;99.90
20366;DHT22;10341;49.894;8.822;2022-12-29T18:01:02;10.30;99.90
20366;DHT22;10341;49.894;8.822;2022-12-29T18:06:22;10.30;99.90
20366;DHT22;10341;49.894;8.822;2022-12-29T18:11:42;10.20;99.90
20366;DHT22;10341;49.894;8.822;2022-12-29T18:17:07;10.20;99.90
20366;DHT22;10341;49.894;8.822;2022-12-29T18:22:27;10.10;99.90
20366;DHT22;10341;49.894;8.822;2022-12-29T18:27:48;10.20;99.90
20366;DHT22;10341;49.894;8.822;2022-12-29T18:33:14;10.10;99.90
20366;DHT22;10341;49.894;8.822;2022-12-29T18:38:33;10.20;99.90
20366;DHT22;10341;49.894;8.822;2022-12-29T18:43:53;10.10;99.90
20366;DHT22;10341;49.894;8.822;2022-12-29T18:49:12;10.10;99.90
20366;DHT22;10341;49.894;8.822;2022-12-29T18:54:32;10.20;99.90
20366;DHT22;10341;49.894;8.822;2022-12-29T18:59:51;10.10;99.90
20366;DHT22;10341;49.894;8.822;2022-12-29T19:10:37;10.10;99.90
20366;DHT22;10341;49.894;8.822;2022-12-29T19:15:56;10.10;99.90
20366;DHT22;10341;49.894;8.822;2022-12-29T19:21:15;10.00;99.90
20366;DHT22;10341;49.894;8.822;2022-12-29T19:26:38;9.90;99.90
20366;DHT22;10341;49.894;8.822;2022-12-29T19:31:58;9.80;99.90
20366;DHT22;10341;49.894;8.822;2022-12-29T19:37:17;9.80;99.90
20366;DHT22;10341;49.894;8.822;2022-12-29T19:42:36;9.70;99.90
20366;DHT22;10341;49.894;8.822;2022-12-29T19:47:55;9.90;99.90
20366;DHT22;10341;49.894;8.822;2022-12-29T19:53:15;10.00;99.90
20366;DHT22;10341;49.894;8.822;2022-12-29T19:58:34;9.80;99.90
20366;DHT22;10341;49.894;8.822;2022-12-29T20:03:55;9.80;99.90
20366;DHT22;10341;49.894;8.822;2022-12-29T20:09:14;9.70;99.90
20366;DHT22;10341;49.894;8.822;2022-12-29T20:14:34;9.60;99.90
20366;DHT22;10341;49.894;8.822;2022-12-29T20:19:53;9.60;99.90
20366;DHT22;10341;49.894;8.822;2022-12-29T20:25:12;9.50;99.90
20366;DHT22;10341;49.894;8.822;2022-12-29T20:30:31;9.50;99.90
20366;DHT22;10341;49.894;8.822;2022-12-29T20:35:50;9.50;99.90
20366;DHT22;10341;49.894;8.822;2022-12-29T20:41:10;9.70;99.90
20366;DHT22;10341;49.894;8.822;2022-12-29T20:46:30;9.70;99.90
20366;DHT22;10341;49.894;8.822;2022-12-29T20:51:50;9.70;99.90
20366;DHT22;10341;49.894;8.822;2022-12-29T20:57:09;9.80;99.90
20366;DHT22;10341;49.894;8.822;2022-12-29T21:02:28;9.70;99.90
20366;DHT22;10341;49.894;8.822;2022-12-29T21:07:48;9.80;99.90
20366;DHT22;10341;49.894;8.822;2022-12-29T21:13:08;9.80;99.90
20366;DHT22;10341;49.894;8.822;2022-12-29T21:18:27;9.80;99.90
20366;DHT22;10341;49.894;8.822;2022-12-29T21:23:47;9.70;99.90
20366;DHT22;10341;49.894;8.822;2022-12-29T21:29:07;9.70;99.90
20366;DHT22;10341;49.894;8.822;2022-12-29T21:34:26;9.70;99.90
20366;DHT22;10341;49.894;8.822;2022-12-29T21:39:45;9.70;99.90
20366;DHT22;10341;49.894;8.822;2022-12-29T21:45:04;9.80;99.90
20366;DHT22;10341;49.894;8.822;2022-12-29T21:50:43;9.80;99.90
20366;DHT22;10341;49.894;8.822;2022-12-29T21:56:22;9.70;99.90
20366;DHT22;10341;49.894;8.822;2022-12-29T22:01:41;9.70;99.90
20366;DHT22;10341;49.894;8.822;2022-12-29T22:07:19;9.70;99.90
20366;DHT22;10341;49.894;8.822;2022-12-29T22:12:58;9.80;99.90
20366;DHT22;10341;49.894;8.822;2022-12-29T22:18:23;9.80;99.90
20366;DHT22;10341;49.894;8.822;2022-12-29T22:23:42;9.70;99.90
20366;DHT22;10341;49.894;8.822;2022-12-29T22:29:02;9.80;99.90
20366;DHT22;10341;49.894;8.822;2022-12-29T22:34:21;9.70;99.90
20366;DHT22;10341;49.894;8.822;2022-12-29T22:39:40;9.70;99.90
20366;DHT22;10341;49.894;8.822;2022-12-29T22:44:59;9.60;99.90
20366;DHT22;10341;49.894;8.822;2022-12-29T22:50:19;9.60;99.90
20366;DHT22;10341;49.894;8.822;2022-12-29T22:55:38;9.60;99.90
20366;DHT22;10341;49.894;8.822;2022-12-29T23:00:57;9.50;99.90
20366;DHT22;10341;49.894;8.822;2022-12-29T23:06:16;9.50;99.90
20366;DHT22;10341;49.894;8.822;2022-12-29T23:11:36;9.30;99.90
20366;DHT22;10341;49.894;8.822;2022-12-29T23:16:55;9.20;99.90
20366;DHT22;10341;49.894;8.822;2022-12-29T23:22:14;9.00;99.90
20366;DHT22;10341;49.894;8.822;2022-12-29T23:27:34;8.90;99.90
20366;DHT22;10341;49.894;8.822;2022-12-29T23:32:53;8.90;99.90
20366;DHT22;10341;49.894;8.822;2022-12-29T23:38:12;8.80;99.90
20366;DHT22;10341;49.894;8.822;2022-12-29T23:43:31;8.80;99.90
20366;DHT22;10341;49.894;8.822;2022-12-29T23:48:51;8.70;99.90
20366;DHT22;10341;49.894;8.822;2022-12-29T23:54:10;8.70;99.90
20366;DHT22;10341;49.894;8.822;2022-12-29T23:59:29;8.40;99.90
